sensor_id;sensor_type;location;lat;lon;timestamp;P1;durP1;ratioP1;P2;durP2;ratioP2
58685;SDS011;44465;53.206;-6.106;2023-04-28T00:01:34;15.85;;;4.07;;
58685;SDS011;44465;53.206;-6.106;2023-04-28T00:04:00;11.25;;;3.58;;
58685;SDS011;44465;53.206;-6.106;2023-04-28T00:06:26;10.32;;;3.92;;
58685;SDS011;44465;53.206;-6.106;2023-04-28T00:08:51;11.90;;;3.47;;
58685;SDS011;44465;53.206;-6.106;2023-04-28T00:11:17;9.98;;;3.13;;
58685;SDS011;44465;53.206;-6.106;2023-04-28T00:13:42;6.07;;;3.35;;
58685;SDS011;44465;53.206;-6.106;2023-04-28T00:16:08;9.98;;;3.58;;
58685;SDS011;44465;53.206;-6.106;2023-04-28T00:18:33;7.75;;;3.22;;
58685;SDS011;44465;53.206;-6.106;2023-04-28T00:20:59;9.15;;;2.88;;
58685;SDS011;44465;53.206;-6.106;2023-04-28T00:25:55;5.15;;;2.85;;
58685;SDS011;44465;53.206;-6.106;2023-04-28T00:28:21;3.28;;;2.90;;
58685;SDS011;44465;53.206;-6.106;2023-04-28T00:30:47;6.82;;;2.80;;
58685;SDS011;44465;53.206;-6.106;2023-04-28T00:33:13;9.00;;;2.80;;
58685;SDS011;44465;53.206;-6.106;2023-04-28T00:35:39;7.30;;;2.63;;
58685;SDS011;44465;53.206;-6.106;2023-04-28T00:38:06;13.35;;;3.45;;
58685;SDS011;44465;53.206;-6.106;2023-04-28T00:40:38;7.65;;;2.88;;
58685;SDS011;44465;53.206;-6.106;2023-04-28T00:43:04;5.25;;;2.65;;
58685;SDS011;44465;53.206;-6.106;2023-04-28T00:45:30;7.72;;;2.72;;
58685;SDS011;44465;53.206;-6.106;2023-04-28T00:47:56;7.35;;;2.88;;
58685;SDS011;44465;53.206;-6.106;2023-04-28T00:50:23;6.67;;;2.37;;
58685;SDS011;44465;53.206;-6.106;2023-04-28T00:52:50;4.65;;;2.60;;
58685;SDS011;44465;53.206;-6.106;2023-04-28T00:55:18;4.25;;;2.63;;
58685;SDS011;44465;53.206;-6.106;2023-04-28T00:57:45;7.68;;;2.78;;
58685;SDS011;44465;53.206;-6.106;2023-04-28T01:00:11;8.60;;;3.10;;
58685;SDS011;44465;53.206;-6.106;2023-04-28T01:02:39;8.50;;;2.53;;
58685;SDS011;44465;53.206;-6.106;2023-04-28T01:05:05;5.88;;;2.53;;
58685;SDS011;44465;53.206;-6.106;2023-04-28T01:07:32;6.13;;;2.40;;
58685;SDS011;44465;53.206;-6.106;2023-04-28T01:09:59;6.47;;;2.75;;
58685;SDS011;44465;53.206;-6.106;2023-04-28T01:12:29;6.13;;;2.60;;
58685;SDS011;44465;53.206;-6.106;2023-04-28T01:14:55;4.32;;;2.40;;
58685;SDS011;44465;53.206;-6.106;2023-04-28T01:17:21;4.88;;;2.78;;
58685;SDS011;44465;53.206;-6.106;2023-04-28T01:19:48;18.63;;;4.07;;
58685;SDS011;44465;53.206;-6.106;2023-04-28T01:22:14;17.38;;;3.25;;
58685;SDS011;44465;53.206;-6.106;2023-04-28T01:27:08;8.60;;;2.55;;
58685;SDS011;44465;53.206;-6.106;2023-04-28T01:29:35;8.40;;;2.67;;
58685;SDS011;44465;53.206;-6.106;2023-04-28T01:32:01;10.15;;;2.85;;
58685;SDS011;44465;53.206;-6.106;2023-04-28T01:34:27;7.07;;;2.67;;
58685;SDS011;44465;53.206;-6.106;2023-04-28T01:36:53;3.92;;;2.42;;
58685;SDS011;44465;53.206;-6.106;2023-04-28T01:39:18;5.35;;;2.72;;
58685;SDS011;44465;53.206;-6.106;2023-04-28T01:41:44;5.82;;;2.53;;
58685;SDS011;44465;53.206;-6.106;2023-04-28T01:44:10;6.47;;;2.67;;
58685;SDS011;44465;53.206;-6.106;2023-04-28T01:46:37;9.85;;;2.95;;
58685;SDS011;44465;53.206;-6.106;2023-04-28T01:49:02;5.15;;;2.40;;
58685;SDS011;44465;53.206;-6.106;2023-04-28T01:51:28;6.78;;;2.55;;
58685;SDS011;44465;53.206;-6.106;2023-04-28T01:53:55;15.33;;;2.80;;
58685;SDS011;44465;53.206;-6.106;2023-04-28T01:56:21;9.07;;;2.72;;
58685;SDS011;44465;53.206;-6.106;2023-04-28T01:58:48;10.48;;;3.05;;
58685;SDS011;44465;53.206;-6.106;2023-04-28T02:01:13;10.07;;;2.72;;
58685;SDS011;44465;53.206;-6.106;2023-04-28T02:03:40;6.53;;;2.50;;
58685;SDS011;44465;53.206;-6.106;2023-04-28T02:06:05;20.73;;;4.00;;
58685;SDS011;44465;53.206;-6.106;2023-04-28T02:08:31;8.57;;;2.40;;
58685;SDS011;44465;53.206;-6.106;2023-04-28T02:10:56;6.85;;;2.70;;
58685;SDS011;44465;53.206;-6.106;2023-04-28T02:13:22;8.98;;;2.60;;
58685;SDS011;44465;53.206;-6.106;2023-04-28T02:15:48;8.18;;;2.83;;
58685;SDS011;44465;53.206;-6.106;2023-04-28T02:18:14;5.15;;;2.40;;
58685;SDS011;44465;53.206;-6.106;2023-04-28T02:20:39;8.73;;;2.53;;
58685;SDS011;44465;53.206;-6.106;2023-04-28T02:23:06;7.03;;;2.17;;
58685;SDS011;44465;53.206;-6.106;2023-04-28T02:25:32;10.20;;;2.60;;
58685;SDS011;44465;53.206;-6.106;2023-04-28T02:27:58;5.00;;;2.10;;
58685;SDS011;44465;53.206;-6.106;2023-04-28T02:30:24;6.40;;;2.60;;
58685;SDS011;44465;53.206;-6.106;2023-04-28T02:32:50;6.30;;;2.20;;
58685;SDS011;44465;53.206;-6.106;2023-04-28T02:35:15;6.22;;;2.25;;
58685;SDS011;44465;53.206;-6.106;2023-04-28T02:37:41;3.58;;;2.05;;
58685;SDS011;44465;53.206;-6.106;2023-04-28T02:40:07;6.30;;;2.30;;
58685;SDS011;44465;53.206;-6.106;2023-04-28T02:42:33;6.90;;;2.42;;
58685;SDS011;44465;53.206;-6.106;2023-04-28T02:45:01;8.10;;;2.72;;
58685;SDS011;44465;53.206;-6.106;2023-04-28T02:47:27;5.43;;;2.47;;
58685;SDS011;44465;53.206;-6.106;2023-04-28T02:49:52;3.88;;;2.75;;
58685;SDS011;44465;53.206;-6.106;2023-04-28T02:52:18;4.80;;;2.08;;
58685;SDS011;44465;53.206;-6.106;2023-04-28T02:54:43;5.93;;;2.00;;
58685;SDS011;44465;53.206;-6.106;2023-04-28T02:57:13;3.40;;;1.70;;
58685;SDS011;44465;53.206;-6.106;2023-04-28T02:59:38;5.90;;;2.22;;
58685;SDS011;44465;53.206;-6.106;2023-04-28T03:02:04;3.25;;;1.85;;
58685;SDS011;44465;53.206;-6.106;2023-04-28T03:04:30;5.00;;;1.77;;
58685;SDS011;44465;53.206;-6.106;2023-04-28T03:06:55;4.78;;;2.30;;
58685;SDS011;44465;53.206;-6.106;2023-04-28T03:09:21;6.35;;;2.00;;
58685;SDS011;44465;53.206;-6.106;2023-04-28T03:11:47;4.88;;;1.92;;
58685;SDS011;44465;53.206;-6.106;2023-04-28T03:14:12;6.43;;;2.40;;
58685;SDS011;44465;53.206;-6.106;2023-04-28T03:16:38;4.03;;;2.00;;
58685;SDS011;44465;53.206;-6.106;2023-04-28T03:19:03;2.08;;;1.83;;
58685;SDS011;44465;53.206;-6.106;2023-04-28T03:21:29;3.50;;;2.13;;
58685;SDS011;44465;53.206;-6.106;2023-04-28T03:23:56;4.20;;;2.60;;
58685;SDS011;44465;53.206;-6.106;2023-04-28T03:26:22;4.10;;;2.10;;
58685;SDS011;44465;53.206;-6.106;2023-04-28T03:28:49;4.43;;;2.22;;
58685;SDS011;44465;53.206;-6.106;2023-04-28T03:31:16;3.20;;;1.88;;
58685;SDS011;44465;53.206;-6.106;2023-04-28T03:33:41;2.83;;;2.00;;
58685;SDS011;44465;53.206;-6.106;2023-04-28T03:36:10;3.80;;;2.15;;
58685;SDS011;44465;53.206;-6.106;2023-04-28T03:38:35;4.78;;;2.50;;
58685;SDS011;44465;53.206;-6.106;2023-04-28T03:41:01;2.35;;;2.00;;
58685;SDS011;44465;53.206;-6.106;2023-04-28T03:43:29;2.45;;;1.90;;
58685;SDS011;44465;53.206;-6.106;2023-04-28T03:46:08;2.17;;;1.80;;
58685;SDS011;44465;53.206;-6.106;2023-04-28T03:48:34;2.90;;;2.10;;
58685;SDS011;44465;53.206;-6.106;2023-04-28T03:50:59;2.92;;;1.95;;
58685;SDS011;44465;53.206;-6.106;2023-04-28T03:53:25;4.13;;;1.65;;
58685;SDS011;44465;53.206;-6.106;2023-04-28T03:55:51;2.40;;;1.80;;
58685;SDS011;44465;53.206;-6.106;2023-04-28T03:58:17;2.33;;;2.13;;
58685;SDS011;44465;53.206;-6.106;2023-04-28T04:00:43;2.90;;;2.10;;
58685;SDS011;44465;53.206;-6.106;2023-04-28T04:03:09;4.82;;;2.28;;
58685;SDS011;44465;53.206;-6.106;2023-04-28T04:05:36;3.70;;;1.77;;
58685;SDS011;44465;53.206;-6.106;2023-04-28T04:08:04;2.35;;;2.15;;
58685;SDS011;44465;53.206;-6.106;2023-04-28T04:10:30;4.57;;;2.30;;
58685;SDS011;44465;53.206;-6.106;2023-04-28T04:12:56;2.90;;;2.03;;
58685;SDS011;44465;53.206;-6.106;2023-04-28T04:15:21;3.70;;;1.90;;
58685;SDS011;44465;53.206;-6.106;2023-04-28T04:17:47;3.45;;;1.90;;
58685;SDS011;44465;53.206;-6.106;2023-04-28T04:20:16;3.15;;;2.20;;
58685;SDS011;44465;53.206;-6.106;2023-04-28T04:22:43;2.08;;;1.85;;
58685;SDS011;44465;53.206;-6.106;2023-04-28T04:25:08;2.72;;;2.08;;
58685;SDS011;44465;53.206;-6.106;2023-04-28T04:27:34;2.30;;;2.10;;
58685;SDS011;44465;53.206;-6.106;2023-04-28T04:30:00;1.98;;;1.80;;
58685;SDS011;44465;53.206;-6.106;2023-04-28T04:32:26;3.90;;;2.10;;
58685;SDS011;44465;53.206;-6.106;2023-04-28T04:34:52;1.90;;;1.80;;
58685;SDS011;44465;53.206;-6.106;2023-04-28T04:37:17;2.55;;;2.08;;
58685;SDS011;44465;53.206;-6.106;2023-04-28T04:39:59;2.72;;;2.10;;
58685;SDS011;44465;53.206;-6.106;2023-04-28T04:42:24;1.80;;;1.70;;
58685;SDS011;44465;53.206;-6.106;2023-04-28T04:45:17;3.42;;;1.90;;
58685;SDS011;44465;53.206;-6.106;2023-04-28T04:47:43;2.13;;;1.90;;
58685;SDS011;44465;53.206;-6.106;2023-04-28T04:50:09;2.33;;;2.10;;
58685;SDS011;44465;53.206;-6.106;2023-04-28T04:52:36;2.60;;;2.13;;
58685;SDS011;44465;53.206;-6.106;2023-04-28T04:55:01;2.28;;;2.03;;
58685;SDS011;44465;53.206;-6.106;2023-04-28T04:57:28;2.42;;;2.13;;
58685;SDS011;44465;53.206;-6.106;2023-04-28T05:00:05;2.10;;;1.88;;
58685;SDS011;44465;53.206;-6.106;2023-04-28T05:02:32;2.97;;;2.10;;
58685;SDS011;44465;53.206;-6.106;2023-04-28T05:04:59;2.00;;;1.90;;
58685;SDS011;44465;53.206;-6.106;2023-04-28T05:07:25;2.53;;;2.03;;
58685;SDS011;44465;53.206;-6.106;2023-04-28T05:09:51;3.10;;;2.20;;
58685;SDS011;44465;53.206;-6.106;2023-04-28T05:12:17;3.20;;;2.03;;
58685;SDS011;44465;53.206;-6.106;2023-04-28T05:14:42;2.63;;;2.15;;
58685;SDS011;44465;53.206;-6.106;2023-04-28T05:17:08;2.47;;;2.00;;
58685;SDS011;44465;53.206;-6.106;2023-04-28T05:19:36;4.65;;;2.30;;
58685;SDS011;44465;53.206;-6.106;2023-04-28T05:22:02;3.30;;;2.20;;
58685;SDS011;44465;53.206;-6.106;2023-04-28T05:24:28;2.80;;;2.17;;
58685;SDS011;44465;53.206;-6.106;2023-04-28T05:26:55;4.30;;;2.85;;
58685;SDS011;44465;53.206;-6.106;2023-04-28T05:29:23;2.40;;;2.20;;
58685;SDS011;44465;53.206;-6.106;2023-04-28T05:31:48;2.38;;;2.17;;
58685;SDS011;44465;53.206;-6.106;2023-04-28T05:34:14;2.72;;;2.35;;
58685;SDS011;44465;53.206;-6.106;2023-04-28T05:36:40;3.33;;;2.10;;
58685;SDS011;44465;53.206;-6.106;2023-04-28T05:39:11;2.47;;;1.80;;
58685;SDS011;44465;53.206;-6.106;2023-04-28T05:41:38;2.58;;;2.00;;
58685;SDS011;44465;53.206;-6.106;2023-04-28T05:44:04;2.67;;;2.20;;
58685;SDS011;44465;53.206;-6.106;2023-04-28T05:46:30;3.08;;;2.45;;
58685;SDS011;44465;53.206;-6.106;2023-04-28T05:48:57;2.50;;;2.30;;
58685;SDS011;44465;53.206;-6.106;2023-04-28T05:51:22;3.17;;;2.45;;
58685;SDS011;44465;53.206;-6.106;2023-04-28T05:53:48;2.10;;;1.90;;
58685;SDS011;44465;53.206;-6.106;2023-04-28T05:56:14;2.15;;;1.92;;
58685;SDS011;44465;53.206;-6.106;2023-04-28T05:58:41;2.95;;;2.50;;
58685;SDS011;44465;53.206;-6.106;2023-04-28T06:01:09;2.25;;;2.03;;
58685;SDS011;44465;53.206;-6.106;2023-04-28T06:03:37;2.42;;;2.22;;
58685;SDS011;44465;53.206;-6.106;2023-04-28T06:06:05;2.35;;;2.15;;
58685;SDS011;44465;53.206;-6.106;2023-04-28T06:08:31;2.92;;;2.20;;
58685;SDS011;44465;53.206;-6.106;2023-04-28T06:10:56;2.40;;;2.17;;
58685;SDS011;44465;53.206;-6.106;2023-04-28T06:13:22;3.65;;;2.13;;
58685;SDS011;44465;53.206;-6.106;2023-04-28T06:15:47;2.67;;;2.20;;
58685;SDS011;44465;53.206;-6.106;2023-04-28T06:18:13;3.35;;;2.40;;
58685;SDS011;44465;53.206;-6.106;2023-04-28T06:20:40;2.10;;;1.88;;
58685;SDS011;44465;53.206;-6.106;2023-04-28T06:23:07;2.17;;;1.98;;
58685;SDS011;44465;53.206;-6.106;2023-04-28T06:25:34;2.20;;;2.00;;
58685;SDS011;44465;53.206;-6.106;2023-04-28T06:28:01;3.88;;;2.10;;
58685;SDS011;44465;53.206;-6.106;2023-04-28T06:30:26;2.60;;;2.40;;
58685;SDS011;44465;53.206;-6.106;2023-04-28T06:32:53;2.28;;;2.08;;
58685;SDS011;44465;53.206;-6.106;2023-04-28T06:35:20;2.72;;;2.03;;
58685;SDS011;44465;53.206;-6.106;2023-04-28T06:37:46;2.70;;;2.08;;
58685;SDS011;44465;53.206;-6.106;2023-04-28T06:40:13;2.95;;;2.40;;
58685;SDS011;44465;53.206;-6.106;2023-04-28T06:42:44;3.10;;;2.50;;
58685;SDS011;44465;53.206;-6.106;2023-04-28T06:45:15;3.45;;;2.30;;
58685;SDS011;44465;53.206;-6.106;2023-04-28T06:47:40;2.60;;;2.30;;
58685;SDS011;44465;53.206;-6.106;2023-04-28T06:50:07;2.67;;;2.47;;
58685;SDS011;44465;53.206;-6.106;2023-04-28T06:52:34;3.55;;;2.50;;
58685;SDS011;44465;53.206;-6.106;2023-04-28T06:55:00;2.50;;;2.30;;
58685;SDS011;44465;53.206;-6.106;2023-04-28T06:57:25;2.30;;;2.10;;
58685;SDS011;44465;53.206;-6.106;2023-04-28T06:59:53;2.13;;;1.88;;
58685;SDS011;44465;53.206;-6.106;2023-04-28T07:02:18;3.05;;;2.40;;
58685;SDS011;44465;53.206;-6.106;2023-04-28T07:04:44;2.33;;;2.00;;
58685;SDS011;44465;53.206;-6.106;2023-04-28T07:07:10;2.28;;;2.05;;
58685;SDS011;44465;53.206;-6.106;2023-04-28T07:09:35;2.45;;;2.20;;
58685;SDS011;44465;53.206;-6.106;2023-04-28T07:12:01;2.20;;;2.10;;
58685;SDS011;44465;53.206;-6.106;2023-04-28T07:14:28;3.38;;;2.13;;
58685;SDS011;44465;53.206;-6.106;2023-04-28T07:16:54;2.03;;;1.83;;
58685;SDS011;44465;53.206;-6.106;2023-04-28T07:19:19;2.60;;;2.40;;
58685;SDS011;44465;53.206;-6.106;2023-04-28T07:21:45;2.60;;;2.40;;
58685;SDS011;44465;53.206;-6.106;2023-04-28T07:24:11;2.40;;;2.20;;
58685;SDS011;44465;53.206;-6.106;2023-04-28T07:26:36;2.65;;;2.15;;
58685;SDS011;44465;53.206;-6.106;2023-04-28T07:29:02;2.50;;;2.30;;
58685;SDS011;44465;53.206;-6.106;2023-04-28T07:31:27;2.92;;;2.42;;
58685;SDS011;44465;53.206;-6.106;2023-04-28T07:33:53;2.58;;;2.00;;
58685;SDS011;44465;53.206;-6.106;2023-04-28T07:36:19;9.23;;;4.38;;
58685;SDS011;44465;53.206;-6.106;2023-04-28T07:38:44;6.95;;;3.30;;
58685;SDS011;44465;53.206;-6.106;2023-04-28T07:41:10;9.00;;;3.03;;
58685;SDS011;44465;53.206;-6.106;2023-04-28T07:43:36;5.00;;;2.88;;
58685;SDS011;44465;53.206;-6.106;2023-04-28T07:46:02;8.88;;;3.13;;
58685;SDS011;44465;53.206;-6.106;2023-04-28T07:48:27;7.68;;;2.92;;
58685;SDS011;44465;53.206;-6.106;2023-04-28T07:50:53;6.13;;;3.25;;
58685;SDS011;44465;53.206;-6.106;2023-04-28T07:53:18;3.85;;;2.83;;
58685;SDS011;44465;53.206;-6.106;2023-04-28T07:55:44;7.80;;;2.65;;
58685;SDS011;44465;53.206;-6.106;2023-04-28T07:58:10;4.18;;;2.35;;
58685;SDS011;44465;53.206;-6.106;2023-04-28T08:00:36;5.10;;;2.83;;
58685;SDS011;44465;53.206;-6.106;2023-04-28T08:03:02;5.20;;;2.88;;
58685;SDS011;44465;53.206;-6.106;2023-04-28T08:05:28;3.95;;;2.40;;
58685;SDS011;44465;53.206;-6.106;2023-04-28T08:07:53;3.38;;;2.40;;
58685;SDS011;44465;53.206;-6.106;2023-04-28T08:10:25;4.60;;;2.90;;
58685;SDS011;44465;53.206;-6.106;2023-04-28T08:12:52;3.55;;;2.58;;
58685;SDS011;44465;53.206;-6.106;2023-04-28T08:15:18;3.42;;;2.42;;
58685;SDS011;44465;53.206;-6.106;2023-04-28T08:17:43;4.70;;;2.53;;
58685;SDS011;44465;53.206;-6.106;2023-04-28T08:20:09;3.47;;;2.53;;
58685;SDS011;44465;53.206;-6.106;2023-04-28T08:22:35;3.35;;;2.53;;
58685;SDS011;44465;53.206;-6.106;2023-04-28T08:25:00;9.20;;;2.90;;
58685;SDS011;44465;53.206;-6.106;2023-04-28T08:27:26;5.07;;;2.65;;
58685;SDS011;44465;53.206;-6.106;2023-04-28T08:29:52;6.72;;;3.22;;
58685;SDS011;44465;53.206;-6.106;2023-04-28T08:32:17;6.10;;;2.83;;
58685;SDS011;44465;53.206;-6.106;2023-04-28T08:34:43;6.03;;;2.97;;
58685;SDS011;44465;53.206;-6.106;2023-04-28T08:37:08;6.32;;;2.67;;
58685;SDS011;44465;53.206;-6.106;2023-04-28T08:39:35;7.85;;;2.83;;
58685;SDS011;44465;53.206;-6.106;2023-04-28T08:42:03;5.32;;;2.78;;
58685;SDS011;44465;53.206;-6.106;2023-04-28T08:44:36;7.50;;;2.60;;
58685;SDS011;44465;53.206;-6.106;2023-04-28T08:47:04;5.55;;;3.08;;
58685;SDS011;44465;53.206;-6.106;2023-04-28T08:49:37;6.68;;;3.03;;
58685;SDS011;44465;53.206;-6.106;2023-04-28T08:52:04;3.80;;;2.42;;
58685;SDS011;44465;53.206;-6.106;2023-04-28T08:54:35;9.43;;;3.42;;
58685;SDS011;44465;53.206;-6.106;2023-04-28T08:57:02;5.00;;;2.63;;
58685;SDS011;44465;53.206;-6.106;2023-04-28T08:59:29;10.13;;;3.58;;
58685;SDS011;44465;53.206;-6.106;2023-04-28T09:01:55;7.05;;;2.95;;
58685;SDS011;44465;53.206;-6.106;2023-04-28T09:04:21;6.45;;;2.58;;
58685;SDS011;44465;53.206;-6.106;2023-04-28T09:06:46;5.55;;;3.10;;
58685;SDS011;44465;53.206;-6.106;2023-04-28T09:11:52;5.78;;;2.28;;
58685;SDS011;44465;53.206;-6.106;2023-04-28T09:14:21;8.80;;;3.70;;
58685;SDS011;44465;53.206;-6.106;2023-04-28T09:16:48;6.43;;;3.13;;
58685;SDS011;44465;53.206;-6.106;2023-04-28T09:19:14;8.80;;;2.80;;
58685;SDS011;44465;53.206;-6.106;2023-04-28T09:21:51;5.30;;;2.97;;
58685;SDS011;44465;53.206;-6.106;2023-04-28T09:24:25;3.15;;;2.58;;
58685;SDS011;44465;53.206;-6.106;2023-04-28T09:29:51;5.00;;;2.45;;
58685;SDS011;44465;53.206;-6.106;2023-04-28T09:32:18;5.23;;;2.60;;
58685;SDS011;44465;53.206;-6.106;2023-04-28T09:39:42;5.70;;;2.50;;
58685;SDS011;44465;53.206;-6.106;2023-04-28T09:42:30;4.97;;;2.72;;
58685;SDS011;44465;53.206;-6.106;2023-04-28T09:45:00;6.40;;;3.05;;
58685;SDS011;44465;53.206;-6.106;2023-04-28T09:48:08;4.07;;;2.42;;
58685;SDS011;44465;53.206;-6.106;2023-04-28T09:50:38;4.60;;;2.45;;
58685;SDS011;44465;53.206;-6.106;2023-04-28T09:53:05;4.80;;;2.65;;
58685;SDS011;44465;53.206;-6.106;2023-04-28T09:55:38;5.50;;;2.72;;
58685;SDS011;44465;53.206;-6.106;2023-04-28T09:58:08;3.92;;;2.40;;
58685;SDS011;44465;53.206;-6.106;2023-04-28T10:00:35;4.20;;;2.67;;
58685;SDS011;44465;53.206;-6.106;2023-04-28T10:03:03;3.53;;;2.55;;
58685;SDS011;44465;53.206;-6.106;2023-04-28T10:05:29;2.78;;;2.28;;
58685;SDS011;44465;53.206;-6.106;2023-04-28T10:07:55;3.28;;;2.60;;
58685;SDS011;44465;53.206;-6.106;2023-04-28T10:10:24;4.53;;;2.45;;
58685;SDS011;44465;53.206;-6.106;2023-04-28T10:12:51;2.85;;;2.20;;
58685;SDS011;44465;53.206;-6.106;2023-04-28T10:15:17;4.82;;;2.60;;
58685;SDS011;44465;53.206;-6.106;2023-04-28T10:17:42;4.63;;;2.80;;
58685;SDS011;44465;53.206;-6.106;2023-04-28T10:20:08;3.78;;;2.80;;
58685;SDS011;44465;53.206;-6.106;2023-04-28T10:27:39;3.03;;;2.28;;
58685;SDS011;44465;53.206;-6.106;2023-04-28T10:30:11;3.67;;;2.50;;
58685;SDS011;44465;53.206;-6.106;2023-04-28T10:32:38;2.50;;;2.15;;
58685;SDS011;44465;53.206;-6.106;2023-04-28T10:38:07;3.40;;;2.50;;
58685;SDS011;44465;53.206;-6.106;2023-04-28T10:40:36;4.07;;;2.78;;
58685;SDS011;44465;53.206;-6.106;2023-04-28T10:43:05;5.38;;;2.70;;
58685;SDS011;44465;53.206;-6.106;2023-04-28T10:48:16;3.63;;;2.40;;
58685;SDS011;44465;53.206;-6.106;2023-04-28T10:56:06;2.50;;;2.20;;
58685;SDS011;44465;53.206;-6.106;2023-04-28T10:58:33;4.47;;;2.70;;
58685;SDS011;44465;53.206;-6.106;2023-04-28T11:01:43;3.30;;;2.35;;
58685;SDS011;44465;53.206;-6.106;2023-04-28T11:03:51;2.30;;;2.10;;
58685;SDS011;44465;53.206;-6.106;2023-04-28T11:12:02;2.50;;;2.20;;
58685;SDS011;44465;53.206;-6.106;2023-04-28T11:19:19;3.85;;;2.38;;
58685;SDS011;44465;53.206;-6.106;2023-04-28T11:21:47;2.40;;;2.13;;
58685;SDS011;44465;53.206;-6.106;2023-04-28T11:24:13;3.40;;;2.20;;
58685;SDS011;44465;53.206;-6.106;2023-04-28T11:26:40;2.63;;;2.08;;
58685;SDS011;44465;53.206;-6.106;2023-04-28T11:29:06;2.55;;;2.35;;
58685;SDS011;44465;53.206;-6.106;2023-04-28T11:31:32;2.83;;;2.30;;
58685;SDS011;44465;53.206;-6.106;2023-04-28T11:33:59;2.33;;;2.13;;
58685;SDS011;44465;53.206;-6.106;2023-04-28T11:36:31;2.10;;;1.85;;
58685;SDS011;44465;53.206;-6.106;2023-04-28T11:39:01;2.50;;;2.30;;
58685;SDS011;44465;53.206;-6.106;2023-04-28T11:41:36;2.42;;;2.22;;
58685;SDS011;44465;53.206;-6.106;2023-04-28T11:50:02;4.25;;;2.40;;
58685;SDS011;44465;53.206;-6.106;2023-04-28T11:52:28;3.78;;;2.10;;
58685;SDS011;44465;53.206;-6.106;2023-04-28T11:54:54;6.97;;;2.42;;
58685;SDS011;44465;53.206;-6.106;2023-04-28T11:57:22;2.50;;;2.30;;
58685;SDS011;44465;53.206;-6.106;2023-04-28T11:59:48;3.58;;;2.47;;
58685;SDS011;44465;53.206;-6.106;2023-04-28T12:02:14;4.07;;;2.17;;
58685;SDS011;44465;53.206;-6.106;2023-04-28T12:04:42;3.45;;;2.20;;
58685;SDS011;44465;53.206;-6.106;2023-04-28T12:07:15;3.33;;;2.77;;
58685;SDS011;44465;53.206;-6.106;2023-04-28T12:12:44;3.70;;;2.17;;
58685;SDS011;44465;53.206;-6.106;2023-04-28T12:15:11;3.13;;;2.53;;
58685;SDS011;44465;53.206;-6.106;2023-04-28T12:17:37;4.13;;;2.35;;
58685;SDS011;44465;53.206;-6.106;2023-04-28T12:20:10;6.60;;;2.47;;
58685;SDS011;44465;53.206;-6.106;2023-04-28T12:22:44;2.92;;;2.15;;
58685;SDS011;44465;53.206;-6.106;2023-04-28T12:25:17;5.00;;;2.20;;
58685;SDS011;44465;53.206;-6.106;2023-04-28T12:28:02;3.42;;;2.38;;
58685;SDS011;44465;53.206;-6.106;2023-04-28T12:30:30;3.40;;;2.30;;
58685;SDS011;44465;53.206;-6.106;2023-04-28T12:32:57;2.63;;;2.33;;
58685;SDS011;44465;53.206;-6.106;2023-04-28T12:35:23;2.05;;;1.95;;
58685;SDS011;44465;53.206;-6.106;2023-04-28T12:37:50;2.30;;;2.10;;
58685;SDS011;44465;53.206;-6.106;2023-04-28T12:40:17;3.40;;;2.20;;
58685;SDS011;44465;53.206;-6.106;2023-04-28T12:42:43;3.35;;;2.00;;
58685;SDS011;44465;53.206;-6.106;2023-04-28T12:45:08;2.90;;;2.13;;
58685;SDS011;44465;53.206;-6.106;2023-04-28T12:47:35;2.58;;;2.38;;
58685;SDS011;44465;53.206;-6.106;2023-04-28T12:50:01;2.22;;;2.00;;
58685;SDS011;44465;53.206;-6.106;2023-04-28T12:52:27;2.33;;;2.00;;
58685;SDS011;44465;53.206;-6.106;2023-04-28T12:54:53;4.82;;;2.58;;
58685;SDS011;44465;53.206;-6.106;2023-04-28T12:57:18;2.33;;;2.13;;
58685;SDS011;44465;53.206;-6.106;2023-04-28T12:59:44;3.10;;;2.10;;
58685;SDS011;44465;53.206;-6.106;2023-04-28T13:02:13;2.78;;;2.13;;
58685;SDS011;44465;53.206;-6.106;2023-04-28T13:04:39;4.10;;;2.55;;
58685;SDS011;44465;53.206;-6.106;2023-04-28T13:07:16;2.15;;;1.95;;
58685;SDS011;44465;53.206;-6.106;2023-04-28T13:09:41;3.80;;;2.25;;
58685;SDS011;44465;53.206;-6.106;2023-04-28T13:12:08;2.40;;;1.98;;
58685;SDS011;44465;53.206;-6.106;2023-04-28T13:14:35;3.03;;;2.53;;
58685;SDS011;44465;53.206;-6.106;2023-04-28T13:17:01;2.58;;;2.15;;
58685;SDS011;44465;53.206;-6.106;2023-04-28T13:19:27;2.25;;;2.00;;
58685;SDS011;44465;53.206;-6.106;2023-04-28T13:21:54;2.20;;;2.10;;
58685;SDS011;44465;53.206;-6.106;2023-04-28T13:24:20;3.00;;;2.30;;
58685;SDS011;44465;53.206;-6.106;2023-04-28T13:26:46;2.95;;;2.10;;
58685;SDS011;44465;53.206;-6.106;2023-04-28T13:29:11;3.05;;;2.10;;
58685;SDS011;44465;53.206;-6.106;2023-04-28T13:31:38;2.90;;;1.98;;
58685;SDS011;44465;53.206;-6.106;2023-04-28T13:34:04;2.40;;;2.05;;
58685;SDS011;44465;53.206;-6.106;2023-04-28T13:36:30;2.47;;;2.00;;
58685;SDS011;44465;53.206;-6.106;2023-04-28T13:38:59;1.90;;;1.80;;
58685;SDS011;44465;53.206;-6.106;2023-04-28T13:41:25;2.50;;;2.00;;
58685;SDS011;44465;53.206;-6.106;2023-04-28T13:43:51;2.40;;;2.20;;
58685;SDS011;44465;53.206;-6.106;2023-04-28T13:46:18;3.00;;;2.17;;
58685;SDS011;44465;53.206;-6.106;2023-04-28T13:48:44;2.28;;;2.03;;
58685;SDS011;44465;53.206;-6.106;2023-04-28T13:51:10;2.42;;;1.85;;
58685;SDS011;44465;53.206;-6.106;2023-04-28T13:53:36;2.10;;;1.90;;
58685;SDS011;44465;53.206;-6.106;2023-04-28T13:59:49;2.10;;;1.90;;
58685;SDS011;44465;53.206;-6.106;2023-04-28T14:02:14;2.45;;;1.80;;
58685;SDS011;44465;53.206;-6.106;2023-04-28T14:04:40;2.35;;;1.80;;
58685;SDS011;44465;53.206;-6.106;2023-04-28T14:07:12;2.17;;;1.98;;
58685;SDS011;44465;53.206;-6.106;2023-04-28T14:09:38;2.83;;;1.95;;
58685;SDS011;44465;53.206;-6.106;2023-04-28T14:12:04;1.85;;;1.65;;
58685;SDS011;44465;53.206;-6.106;2023-04-28T14:14:30;2.35;;;2.10;;
58685;SDS011;44465;53.206;-6.106;2023-04-28T14:16:56;2.53;;;1.90;;
58685;SDS011;44465;53.206;-6.106;2023-04-28T14:19:22;3.10;;;2.40;;
58685;SDS011;44465;53.206;-6.106;2023-04-28T14:21:51;2.85;;;2.20;;
58685;SDS011;44465;53.206;-6.106;2023-04-28T14:24:17;6.25;;;2.35;;
58685;SDS011;44465;53.206;-6.106;2023-04-28T14:26:43;2.55;;;2.00;;
58685;SDS011;44465;53.206;-6.106;2023-04-28T14:29:08;2.60;;;1.88;;
58685;SDS011;44465;53.206;-6.106;2023-04-28T14:31:34;3.13;;;2.20;;
58685;SDS011;44465;53.206;-6.106;2023-04-28T14:33:59;2.15;;;2.05;;
58685;SDS011;44465;53.206;-6.106;2023-04-28T14:36:25;2.58;;;1.98;;
58685;SDS011;44465;53.206;-6.106;2023-04-28T14:38:51;4.53;;;2.05;;
58685;SDS011;44465;53.206;-6.106;2023-04-28T14:41:17;4.07;;;1.98;;
58685;SDS011;44465;53.206;-6.106;2023-04-28T14:43:42;4.72;;;2.20;;
58685;SDS011;44465;53.206;-6.106;2023-04-28T14:46:09;6.88;;;3.13;;
58685;SDS011;44465;53.206;-6.106;2023-04-28T14:48:35;4.07;;;2.22;;
58685;SDS011;44465;53.206;-6.106;2023-04-28T14:51:01;4.45;;;2.20;;
58685;SDS011;44465;53.206;-6.106;2023-04-28T14:53:26;5.63;;;2.00;;
58685;SDS011;44465;53.206;-6.106;2023-04-28T14:55:52;4.82;;;2.28;;
58685;SDS011;44465;53.206;-6.106;2023-04-28T14:58:18;3.45;;;2.42;;
58685;SDS011;44465;53.206;-6.106;2023-04-28T15:00:44;3.67;;;2.03;;
58685;SDS011;44465;53.206;-6.106;2023-04-28T15:03:09;3.42;;;1.73;;
58685;SDS011;44465;53.206;-6.106;2023-04-28T15:05:35;2.55;;;1.85;;
58685;SDS011;44465;53.206;-6.106;2023-04-28T15:08:00;6.93;;;2.40;;
58685;SDS011;44465;53.206;-6.106;2023-04-28T15:10:26;17.73;;;3.45;;
58685;SDS011;44465;53.206;-6.106;2023-04-28T15:12:59;29.38;;;4.38;;
58685;SDS011;44465;53.206;-6.106;2023-04-28T15:15:25;15.32;;;3.10;;
58685;SDS011;44465;53.206;-6.106;2023-04-28T15:17:51;15.65;;;3.10;;
58685;SDS011;44465;53.206;-6.106;2023-04-28T15:20:17;33.88;;;4.35;;
58685;SDS011;44465;53.206;-6.106;2023-04-28T15:22:42;22.23;;;3.63;;
58685;SDS011;44465;53.206;-6.106;2023-04-28T15:25:08;21.75;;;3.25;;
58685;SDS011;44465;53.206;-6.106;2023-04-28T15:27:34;13.10;;;2.75;;